sensor_id;sensor_type;location;lat;lon;timestamp;P1;durP1;ratioP1;P2;durP2;ratioP2
46222;SDS011;31943;51.410;7.564;2023-02-28T00:00:38;6.20;;;2.97;;
46222;SDS011;31943;51.410;7.564;2023-02-28T00:03:04;6.07;;;2.63;;
46222;SDS011;31943;51.410;7.564;2023-02-28T00:05:30;4.20;;;2.78;;
46222;SDS011;31943;51.410;7.564;2023-02-28T00:07:56;5.20;;;2.92;;
46222;SDS011;31943;51.410;7.564;2023-02-28T00:10:22;5.25;;;2.65;;
46222;SDS011;31943;51.410;7.564;2023-02-28T00:12:50;3.70;;;2.42;;
46222;SDS011;31943;51.410;7.564;2023-02-28T00:15:18;5.72;;;2.85;;
46222;SDS011;31943;51.410;7.564;2023-02-28T00:17:44;3.75;;;2.80;;
46222;SDS011;31943;51.410;7.564;2023-02-28T00:20:10;3.58;;;2.50;;
46222;SDS011;31943;51.410;7.564;2023-02-28T00:22:38;4.50;;;2.55;;
46222;SDS011;31943;51.410;7.564;2023-02-28T00:25:06;4.07;;;2.60;;
46222;SDS011;31943;51.410;7.564;2023-02-28T00:27:33;3.85;;;2.72;;
46222;SDS011;31943;51.410;7.564;2023-02-28T00:29:59;5.32;;;2.60;;
46222;SDS011;31943;51.410;7.564;2023-02-28T00:32:26;3.28;;;2.40;;
46222;SDS011;31943;51.410;7.564;2023-02-28T00:34:53;4.93;;;2.88;;
46222;SDS011;31943;51.410;7.564;2023-02-28T00:37:19;4.07;;;2.50;;
46222;SDS011;31943;51.410;7.564;2023-02-28T00:39:44;4.20;;;2.50;;
46222;SDS011;31943;51.410;7.564;2023-02-28T00:42:10;5.07;;;3.28;;
46222;SDS011;31943;51.410;7.564;2023-02-28T00:44:35;5.82;;;3.25;;
46222;SDS011;31943;51.410;7.564;2023-02-28T00:47:01;5.57;;;3.10;;
46222;SDS011;31943;51.410;7.564;2023-02-28T00:49:28;4.78;;;3.10;;
46222;SDS011;31943;51.410;7.564;2023-02-28T00:51:54;7.28;;;3.33;;
46222;SDS011;31943;51.410;7.564;2023-02-28T00:54:20;5.43;;;2.90;;
46222;SDS011;31943;51.410;7.564;2023-02-28T00:56:46;5.35;;;3.55;;
46222;SDS011;31943;51.410;7.564;2023-02-28T00:59:12;5.07;;;2.95;;
46222;SDS011;31943;51.410;7.564;2023-02-28T01:01:38;5.03;;;3.30;;
46222;SDS011;31943;51.410;7.564;2023-02-28T01:04:04;4.93;;;3.20;;
46222;SDS011;31943;51.410;7.564;2023-02-28T01:06:31;7.03;;;3.53;;
46222;SDS011;31943;51.410;7.564;2023-02-28T01:08:57;4.15;;;3.30;;
46222;SDS011;31943;51.410;7.564;2023-02-28T01:11:23;4.85;;;3.60;;
46222;SDS011;31943;51.410;7.564;2023-02-28T01:13:48;5.78;;;3.33;;
46222;SDS011;31943;51.410;7.564;2023-02-28T01:16:14;6.03;;;3.75;;
46222;SDS011;31943;51.410;7.564;2023-02-28T01:18:41;5.00;;;3.35;;
46222;SDS011;31943;51.410;7.564;2023-02-28T01:21:07;5.63;;;3.80;;
46222;SDS011;31943;51.410;7.564;2023-02-28T01:23:35;5.72;;;3.55;;
46222;SDS011;31943;51.410;7.564;2023-02-28T01:26:03;4.90;;;3.47;;
46222;SDS011;31943;51.410;7.564;2023-02-28T01:28:29;6.60;;;3.35;;
46222;SDS011;31943;51.410;7.564;2023-02-28T01:30:56;5.18;;;3.50;;
46222;SDS011;31943;51.410;7.564;2023-02-28T01:33:23;7.60;;;3.30;;
46222;SDS011;31943;51.410;7.564;2023-02-28T01:35:57;5.07;;;3.83;;
46222;SDS011;31943;51.410;7.564;2023-02-28T01:38:23;5.93;;;3.25;;
46222;SDS011;31943;51.410;7.564;2023-02-28T01:40:51;5.95;;;3.47;;
46222;SDS011;31943;51.410;7.564;2023-02-28T01:43:19;7.82;;;3.80;;
46222;SDS011;31943;51.410;7.564;2023-02-28T01:45:47;5.22;;;3.40;;
46222;SDS011;31943;51.410;7.564;2023-02-28T01:48:12;6.50;;;4.07;;
46222;SDS011;31943;51.410;7.564;2023-02-28T01:50:39;5.97;;;3.80;;
46222;SDS011;31943;51.410;7.564;2023-02-28T01:53:09;5.90;;;3.42;;
46222;SDS011;31943;51.410;7.564;2023-02-28T01:55:39;6.65;;;3.55;;
46222;SDS011;31943;51.410;7.564;2023-02-28T01:58:07;6.22;;;4.00;;
46222;SDS011;31943;51.410;7.564;2023-02-28T02:00:34;4.32;;;3.13;;
46222;SDS011;31943;51.410;7.564;2023-02-28T02:03:00;7.63;;;4.50;;
46222;SDS011;31943;51.410;7.564;2023-02-28T02:05:33;5.53;;;3.70;;
46222;SDS011;31943;51.410;7.564;2023-02-28T02:08:03;6.00;;;3.80;;
46222;SDS011;31943;51.410;7.564;2023-02-28T02:10:34;6.53;;;3.58;;
46222;SDS011;31943;51.410;7.564;2023-02-28T02:13:08;6.13;;;3.65;;
46222;SDS011;31943;51.410;7.564;2023-02-28T02:15:56;5.72;;;3.38;;
46222;SDS011;31943;51.410;7.564;2023-02-28T02:18:31;5.22;;;3.38;;
46222;SDS011;31943;51.410;7.564;2023-02-28T02:21:12;5.72;;;3.42;;
46222;SDS011;31943;51.410;7.564;2023-02-28T02:26:56;8.30;;;3.75;;
46222;SDS011;31943;51.410;7.564;2023-02-28T02:35:41;5.95;;;3.20;;
46222;SDS011;31943;51.410;7.564;2023-02-28T02:38:15;6.93;;;3.53;;
46222;SDS011;31943;51.410;7.564;2023-02-28T02:40:46;6.88;;;3.70;;
46222;SDS011;31943;51.410;7.564;2023-02-28T02:43:19;5.88;;;3.90;;
46222;SDS011;31943;51.410;7.564;2023-02-28T02:45:52;5.18;;;3.63;;
46222;SDS011;31943;51.410;7.564;2023-02-28T02:48:21;6.55;;;3.78;;
46222;SDS011;31943;51.410;7.564;2023-02-28T02:50:55;4.70;;;3.35;;
46222;SDS011;31943;51.410;7.564;2023-02-28T02:53:24;5.30;;;3.30;;
46222;SDS011;31943;51.410;7.564;2023-02-28T02:55:54;5.05;;;3.30;;
46222;SDS011;31943;51.410;7.564;2023-02-28T02:58:24;7.60;;;3.63;;
46222;SDS011;31943;51.410;7.564;2023-02-28T03:00:54;5.32;;;3.42;;
46222;SDS011;31943;51.410;7.564;2023-02-28T03:03:23;5.25;;;3.30;;
46222;SDS011;31943;51.410;7.564;2023-02-28T03:05:50;6.53;;;3.60;;
46222;SDS011;31943;51.410;7.564;2023-02-28T03:08:17;4.75;;;2.97;;
46222;SDS011;31943;51.410;7.564;2023-02-28T03:10:43;4.47;;;2.70;;
46222;SDS011;31943;51.410;7.564;2023-02-28T03:16:17;6.20;;;4.25;;
46222;SDS011;31943;51.410;7.564;2023-02-28T03:19:03;7.18;;;3.65;;
46222;SDS011;31943;51.410;7.564;2023-02-28T03:21:52;6.57;;;3.63;;
46222;SDS011;31943;51.410;7.564;2023-02-28T03:24:30;4.30;;;3.15;;
46222;SDS011;31943;51.410;7.564;2023-02-28T03:27:05;5.72;;;3.65;;
46222;SDS011;31943;51.410;7.564;2023-02-28T03:29:35;6.38;;;3.65;;
46222;SDS011;31943;51.410;7.564;2023-02-28T03:32:05;6.13;;;3.42;;
46222;SDS011;31943;51.410;7.564;2023-02-28T03:34:38;7.00;;;3.78;;
46222;SDS011;31943;51.410;7.564;2023-02-28T03:37:07;6.32;;;4.15;;
46222;SDS011;31943;51.410;7.564;2023-02-28T03:39:39;6.47;;;4.00;;
46222;SDS011;31943;51.410;7.564;2023-02-28T03:42:09;5.20;;;3.67;;
46222;SDS011;31943;51.410;7.564;2023-02-28T03:44:40;4.93;;;3.47;;
46222;SDS011;31943;51.410;7.564;2023-02-28T03:47:09;5.30;;;3.83;;
46222;SDS011;31943;51.410;7.564;2023-02-28T03:49:39;7.65;;;3.95;;
46222;SDS011;31943;51.410;7.564;2023-02-28T03:52:08;4.65;;;4.07;;
46222;SDS011;31943;51.410;7.564;2023-02-28T03:54:36;5.68;;;3.72;;
46222;SDS011;31943;51.410;7.564;2023-02-28T03:57:07;5.03;;;3.30;;
46222;SDS011;31943;51.410;7.564;2023-02-28T03:59:41;6.15;;;4.10;;
46222;SDS011;31943;51.410;7.564;2023-02-28T04:02:10;9.05;;;4.88;;
46222;SDS011;31943;51.410;7.564;2023-02-28T04:04:36;4.63;;;3.58;;
46222;SDS011;31943;51.410;7.564;2023-02-28T04:07:03;6.18;;;3.53;;
46222;SDS011;31943;51.410;7.564;2023-02-28T04:09:31;6.25;;;3.40;;
46222;SDS011;31943;51.410;7.564;2023-02-28T04:11:59;6.20;;;3.67;;
46222;SDS011;31943;51.410;7.564;2023-02-28T04:14:25;4.45;;;3.30;;
46222;SDS011;31943;51.410;7.564;2023-02-28T04:16:52;6.32;;;4.38;;
46222;SDS011;31943;51.410;7.564;2023-02-28T04:19:18;5.38;;;3.60;;
46222;SDS011;31943;51.410;7.564;2023-02-28T04:21:45;6.30;;;4.38;;
46222;SDS011;31943;51.410;7.564;2023-02-28T04:24:13;5.85;;;3.90;;
46222;SDS011;31943;51.410;7.564;2023-02-28T04:26:43;5.57;;;3.80;;
46222;SDS011;31943;51.410;7.564;2023-02-28T04:29:17;4.43;;;3.15;;
46222;SDS011;31943;51.410;7.564;2023-02-28T04:31:48;4.55;;;3.35;;
46222;SDS011;31943;51.410;7.564;2023-02-28T04:34:14;5.53;;;3.30;;
46222;SDS011;31943;51.410;7.564;2023-02-28T04:36:40;5.20;;;3.42;;
46222;SDS011;31943;51.410;7.564;2023-02-28T04:39:07;5.00;;;3.22;;
46222;SDS011;31943;51.410;7.564;2023-02-28T04:41:33;4.15;;;3.28;;
46222;SDS011;31943;51.410;7.564;2023-02-28T04:43:59;5.63;;;3.42;;
46222;SDS011;31943;51.410;7.564;2023-02-28T04:46:26;6.60;;;3.13;;
46222;SDS011;31943;51.410;7.564;2023-02-28T04:48:51;6.72;;;3.75;;
46222;SDS011;31943;51.410;7.564;2023-02-28T04:51:18;6.43;;;3.28;;
46222;SDS011;31943;51.410;7.564;2023-02-28T04:53:44;4.88;;;3.13;;
46222;SDS011;31943;51.410;7.564;2023-02-28T04:56:10;5.57;;;3.08;;
46222;SDS011;31943;51.410;7.564;2023-02-28T04:58:38;6.57;;;3.40;;
46222;SDS011;31943;51.410;7.564;2023-02-28T05:01:04;5.40;;;2.92;;
46222;SDS011;31943;51.410;7.564;2023-02-28T05:03:32;5.53;;;3.08;;
46222;SDS011;31943;51.410;7.564;2023-02-28T05:05:58;4.28;;;3.30;;
46222;SDS011;31943;51.410;7.564;2023-02-28T05:08:24;5.15;;;3.08;;
46222;SDS011;31943;51.410;7.564;2023-02-28T05:10:50;8.63;;;3.55;;
46222;SDS011;31943;51.410;7.564;2023-02-28T05:13:16;4.82;;;2.90;;
46222;SDS011;31943;51.410;7.564;2023-02-28T05:15:41;3.80;;;3.20;;
46222;SDS011;31943;51.410;7.564;2023-02-28T05:18:07;4.68;;;3.58;;
46222;SDS011;31943;51.410;7.564;2023-02-28T05:20:35;4.68;;;3.00;;
46222;SDS011;31943;51.410;7.564;2023-02-28T05:23:01;3.85;;;3.00;;
46222;SDS011;31943;51.410;7.564;2023-02-28T05:25:27;4.88;;;3.20;;
46222;SDS011;31943;51.410;7.564;2023-02-28T05:27:52;5.95;;;3.50;;
46222;SDS011;31943;51.410;7.564;2023-02-28T05:30:19;5.65;;;3.13;;
46222;SDS011;31943;51.410;7.564;2023-02-28T05:32:48;4.00;;;3.08;;
46222;SDS011;31943;51.410;7.564;2023-02-28T05:35:16;5.10;;;3.42;;
46222;SDS011;31943;51.410;7.564;2023-02-28T05:37:43;5.20;;;3.30;;
46222;SDS011;31943;51.410;7.564;2023-02-28T05:40:10;5.55;;;3.00;;
46222;SDS011;31943;51.410;7.564;2023-02-28T05:42:36;6.05;;;3.20;;
46222;SDS011;31943;51.410;7.564;2023-02-28T05:45:03;5.40;;;2.83;;
46222;SDS011;31943;51.410;7.564;2023-02-28T05:47:30;5.50;;;2.97;;
46222;SDS011;31943;51.410;7.564;2023-02-28T05:49:57;5.63;;;3.65;;
46222;SDS011;31943;51.410;7.564;2023-02-28T05:52:23;3.67;;;2.80;;
46222;SDS011;31943;51.410;7.564;2023-02-28T05:54:50;3.63;;;2.67;;
46222;SDS011;31943;51.410;7.564;2023-02-28T05:57:16;4.03;;;2.50;;
46222;SDS011;31943;51.410;7.564;2023-02-28T05:59:42;4.72;;;2.88;;
46222;SDS011;31943;51.410;7.564;2023-02-28T06:02:09;3.85;;;2.53;;
46222;SDS011;31943;51.410;7.564;2023-02-28T06:04:37;3.95;;;2.28;;
46222;SDS011;31943;51.410;7.564;2023-02-28T06:07:03;3.75;;;2.78;;
46222;SDS011;31943;51.410;7.564;2023-02-28T06:09:31;3.78;;;2.67;;
46222;SDS011;31943;51.410;7.564;2023-02-28T06:12:07;3.15;;;2.40;;
46222;SDS011;31943;51.410;7.564;2023-02-28T06:14:35;5.57;;;2.97;;
46222;SDS011;31943;51.410;7.564;2023-02-28T06:17:00;3.80;;;2.38;;
46222;SDS011;31943;51.410;7.564;2023-02-28T06:19:28;4.03;;;2.38;;
46222;SDS011;31943;51.410;7.564;2023-02-28T06:21:55;3.67;;;2.38;;
46222;SDS011;31943;51.410;7.564;2023-02-28T06:24:22;2.92;;;1.90;;
46222;SDS011;31943;51.410;7.564;2023-02-28T06:26:50;4.60;;;2.08;;
46222;SDS011;31943;51.410;7.564;2023-02-28T06:29:21;5.55;;;2.30;;
46222;SDS011;31943;51.410;7.564;2023-02-28T06:31:47;3.00;;;2.22;;
46222;SDS011;31943;51.410;7.564;2023-02-28T06:34:17;4.63;;;1.75;;
46222;SDS011;31943;51.410;7.564;2023-02-28T06:36:43;2.53;;;1.88;;
46222;SDS011;31943;51.410;7.564;2023-02-28T06:39:12;3.40;;;2.25;;
46222;SDS011;31943;51.410;7.564;2023-02-28T06:41:44;4.18;;;2.20;;
46222;SDS011;31943;51.410;7.564;2023-02-28T06:46:40;2.83;;;1.80;;
46222;SDS011;31943;51.410;7.564;2023-02-28T06:49:07;3.10;;;1.95;;
46222;SDS011;31943;51.410;7.564;2023-02-28T06:51:36;2.88;;;2.20;;
46222;SDS011;31943;51.410;7.564;2023-02-28T06:54:03;4.80;;;1.90;;
46222;SDS011;31943;51.410;7.564;2023-02-28T06:56:29;3.45;;;2.63;;
46222;SDS011;31943;51.410;7.564;2023-02-28T06:58:58;2.45;;;1.80;;
46222;SDS011;31943;51.410;7.564;2023-02-28T07:01:31;4.88;;;2.20;;
46222;SDS011;31943;51.410;7.564;2023-02-28T07:04:02;4.13;;;1.90;;
46222;SDS011;31943;51.410;7.564;2023-02-28T07:06:29;4.03;;;2.53;;
46222;SDS011;31943;51.410;7.564;2023-02-28T07:08:57;3.58;;;2.20;;
46222;SDS011;31943;51.410;7.564;2023-02-28T07:11:24;3.83;;;2.40;;
46222;SDS011;31943;51.410;7.564;2023-02-28T07:13:52;3.88;;;2.40;;
46222;SDS011;31943;51.410;7.564;2023-02-28T07:16:17;6.40;;;3.97;;
46222;SDS011;31943;51.410;7.564;2023-02-28T07:18:48;4.72;;;3.35;;
46222;SDS011;31943;51.410;7.564;2023-02-28T07:21:19;5.00;;;3.28;;
46222;SDS011;31943;51.410;7.564;2023-02-28T07:23:45;5.75;;;3.20;;
46222;SDS011;31943;51.410;7.564;2023-02-28T07:26:12;3.92;;;2.70;;
46222;SDS011;31943;51.410;7.564;2023-02-28T07:28:38;3.35;;;2.28;;
46222;SDS011;31943;51.410;7.564;2023-02-28T07:31:06;3.58;;;2.17;;
46222;SDS011;31943;51.410;7.564;2023-02-28T07:33:33;3.97;;;2.20;;
46222;SDS011;31943;51.410;7.564;2023-02-28T07:36:03;3.60;;;2.60;;
46222;SDS011;31943;51.410;7.564;2023-02-28T07:38:33;3.95;;;2.55;;
46222;SDS011;31943;51.410;7.564;2023-02-28T07:41:09;3.47;;;2.75;;
46222;SDS011;31943;51.410;7.564;2023-02-28T07:43:35;4.03;;;2.78;;
46222;SDS011;31943;51.410;7.564;2023-02-28T07:46:05;4.47;;;2.97;;
46222;SDS011;31943;51.410;7.564;2023-02-28T07:48:33;4.93;;;2.85;;
46222;SDS011;31943;51.410;7.564;2023-02-28T07:50:59;4.68;;;3.15;;
46222;SDS011;31943;51.410;7.564;2023-02-28T07:53:25;5.93;;;3.25;;
46222;SDS011;31943;51.410;7.564;2023-02-28T07:55:52;6.13;;;3.33;;
46222;SDS011;31943;51.410;7.564;2023-02-28T07:58:21;6.50;;;4.05;;
46222;SDS011;31943;51.410;7.564;2023-02-28T08:00:51;7.00;;;4.25;;
46222;SDS011;31943;51.410;7.564;2023-02-28T08:03:19;5.22;;;3.75;;
46222;SDS011;31943;51.410;7.564;2023-02-28T08:05:47;8.00;;;4.70;;
46222;SDS011;31943;51.410;7.564;2023-02-28T08:08:44;9.60;;;4.70;;
46222;SDS011;31943;51.410;7.564;2023-02-28T08:11:17;28.15;;;12.50;;
46222;SDS011;31943;51.410;7.564;2023-02-28T08:13:43;12.25;;;6.75;;
46222;SDS011;31943;51.410;7.564;2023-02-28T08:16:10;12.43;;;7.90;;
46222;SDS011;31943;51.410;7.564;2023-02-28T08:18:38;7.25;;;4.25;;
46222;SDS011;31943;51.410;7.564;2023-02-28T08:21:09;7.32;;;3.75;;
46222;SDS011;31943;51.410;7.564;2023-02-28T08:23:35;7.28;;;3.83;;
46222;SDS011;31943;51.410;7.564;2023-02-28T08:26:07;9.77;;;3.97;;
46222;SDS011;31943;51.410;7.564;2023-02-28T08:31:15;7.45;;;4.25;;
46222;SDS011;31943;51.410;7.564;2023-02-28T08:33:42;7.72;;;4.50;;
46222;SDS011;31943;51.410;7.564;2023-02-28T08:36:14;6.85;;;4.70;;
46222;SDS011;31943;51.410;7.564;2023-02-28T08:38:48;6.70;;;4.82;;
46222;SDS011;31943;51.410;7.564;2023-02-28T08:41:14;6.35;;;4.70;;
46222;SDS011;31943;51.410;7.564;2023-02-28T08:43:42;9.82;;;4.47;;
46222;SDS011;31943;51.410;7.564;2023-02-28T08:46:14;7.90;;;4.20;;
46222;SDS011;31943;51.410;7.564;2023-02-28T08:48:43;6.03;;;4.57;;
46222;SDS011;31943;51.410;7.564;2023-02-28T08:51:20;6.38;;;4.60;;
46222;SDS011;31943;51.410;7.564;2023-02-28T08:53:47;8.85;;;4.25;;
46222;SDS011;31943;51.410;7.564;2023-02-28T08:58:59;5.63;;;4.45;;
46222;SDS011;31943;51.410;7.564;2023-02-28T09:01:30;9.52;;;5.82;;
46222;SDS011;31943;51.410;7.564;2023-02-28T09:04:00;9.25;;;5.00;;
46222;SDS011;31943;51.410;7.564;2023-02-28T09:06:27;7.25;;;4.70;;
46222;SDS011;31943;51.410;7.564;2023-02-28T09:08:59;8.55;;;5.07;;
46222;SDS011;31943;51.410;7.564;2023-02-28T09:11:28;10.60;;;5.07;;
46222;SDS011;31943;51.410;7.564;2023-02-28T09:13:54;8.73;;;5.00;;
46222;SDS011;31943;51.410;7.564;2023-02-28T09:16:21;6.47;;;4.13;;
46222;SDS011;31943;51.410;7.564;2023-02-28T09:18:48;7.20;;;3.83;;
46222;SDS011;31943;51.410;7.564;2023-02-28T09:21:15;5.50;;;3.58;;
46222;SDS011;31943;51.410;7.564;2023-02-28T09:23:42;9.20;;;6.60;;
46222;SDS011;31943;51.410;7.564;2023-02-28T09:26:12;9.20;;;6.43;;
46222;SDS011;31943;51.410;7.564;2023-02-28T09:28:39;7.68;;;4.28;;
46222;SDS011;31943;51.410;7.564;2023-02-28T09:31:05;8.55;;;5.13;;
46222;SDS011;31943;51.410;7.564;2023-02-28T09:33:31;7.72;;;5.50;;
46222;SDS011;31943;51.410;7.564;2023-02-28T09:35:59;9.73;;;5.38;;
46222;SDS011;31943;51.410;7.564;2023-02-28T09:38:27;7.43;;;5.63;;
46222;SDS011;31943;51.410;7.564;2023-02-28T09:40:53;6.10;;;4.90;;
46222;SDS011;31943;51.410;7.564;2023-02-28T09:43:25;6.28;;;4.22;;
46222;SDS011;31943;51.410;7.564;2023-02-28T09:45:55;5.47;;;3.67;;
46222;SDS011;31943;51.410;7.564;2023-02-28T09:48:26;6.80;;;4.50;;
46222;SDS011;31943;51.410;7.564;2023-02-28T09:51:02;4.70;;;3.30;;
46222;SDS011;31943;51.410;7.564;2023-02-28T09:53:44;4.05;;;2.70;;
46222;SDS011;31943;51.410;7.564;2023-02-28T09:56:12;5.43;;;2.33;;
46222;SDS011;31943;51.410;7.564;2023-02-28T09:58:47;4.78;;;2.70;;
46222;SDS011;31943;51.410;7.564;2023-02-28T10:01:18;5.65;;;2.25;;
46222;SDS011;31943;51.410;7.564;2023-02-28T10:03:53;5.13;;;2.20;;
46222;SDS011;31943;51.410;7.564;2023-02-28T10:06:32;3.30;;;2.03;;
46222;SDS011;31943;51.410;7.564;2023-02-28T10:09:07;3.10;;;2.50;;
46222;SDS011;31943;51.410;7.564;2023-02-28T10:11:37;6.20;;;2.17;;
46222;SDS011;31943;51.410;7.564;2023-02-28T10:14:07;4.25;;;2.33;;
46222;SDS011;31943;51.410;7.564;2023-02-28T10:16:41;3.65;;;2.00;;
46222;SDS011;31943;51.410;7.564;2023-02-28T10:19:11;3.72;;;2.15;;
46222;SDS011;31943;51.410;7.564;2023-02-28T10:21:47;4.45;;;2.08;;
46222;SDS011;31943;51.410;7.564;2023-02-28T10:24:23;3.97;;;2.10;;
46222;SDS011;31943;51.410;7.564;2023-02-28T10:26:56;4.20;;;2.22;;
46222;SDS011;31943;51.410;7.564;2023-02-28T10:29:26;2.90;;;1.80;;
46222;SDS011;31943;51.410;7.564;2023-02-28T10:31:52;3.92;;;2.05;;
46222;SDS011;31943;51.410;7.564;2023-02-28T10:34:20;2.92;;;1.90;;
46222;SDS011;31943;51.410;7.564;2023-02-28T10:36:47;1.95;;;1.65;;
46222;SDS011;31943;51.410;7.564;2023-02-28T10:39:35;4.13;;;1.70;;
46222;SDS011;31943;51.410;7.564;2023-02-28T10:42:17;3.03;;;1.80;;
46222;SDS011;31943;51.410;7.564;2023-02-28T10:44:46;2.53;;;1.50;;
46222;SDS011;31943;51.410;7.564;2023-02-28T10:47:13;2.67;;;1.85;;
46222;SDS011;31943;51.410;7.564;2023-02-28T10:49:45;3.03;;;1.90;;
46222;SDS011;31943;51.410;7.564;2023-02-28T10:52:13;2.97;;;1.48;;
46222;SDS011;31943;51.410;7.564;2023-02-28T10:55:13;2.15;;;1.60;;
46222;SDS011;31943;51.410;7.564;2023-02-28T10:57:41;4.97;;;1.80;;
46222;SDS011;31943;51.410;7.564;2023-02-28T11:00:12;5.18;;;1.40;;
46222;SDS011;31943;51.410;7.564;2023-02-28T11:02:41;3.40;;;1.77;;
46222;SDS011;31943;51.410;7.564;2023-02-28T11:05:26;2.17;;;1.30;;
46222;SDS011;31943;51.410;7.564;2023-02-28T11:07:57;2.08;;;1.55;;
46222;SDS011;31943;51.410;7.564;2023-02-28T11:10:31;2.55;;;1.33;;
46222;SDS011;31943;51.410;7.564;2023-02-28T11:12:58;2.63;;;1.50;;
46222;SDS011;31943;51.410;7.564;2023-02-28T11:15:24;2.03;;;1.48;;
46222;SDS011;31943;51.410;7.564;2023-02-28T11:17:53;3.47;;;1.40;;
46222;SDS011;31943;51.410;7.564;2023-02-28T11:20:20;4.22;;;1.70;;
46222;SDS011;31943;51.410;7.564;2023-02-28T11:22:50;2.47;;;1.77;;
46222;SDS011;31943;51.410;7.564;2023-02-28T11:25:21;2.88;;;1.50;;
46222;SDS011;31943;51.410;7.564;2023-02-28T11:27:53;4.38;;;2.60;;
46222;SDS011;31943;51.410;7.564;2023-02-28T11:33:18;4.80;;;2.05;;
46222;SDS011;31943;51.410;7.564;2023-02-28T11:38:14;6.88;;;3.58;;
46222;SDS011;31943;51.410;7.564;2023-02-28T11:40:46;16.48;;;8.95;;
46222;SDS011;31943;51.410;7.564;2023-02-28T11:43:27;8.20;;;4.20;;
46222;SDS011;31943;51.410;7.564;2023-02-28T11:46:08;5.53;;;2.55;;
46222;SDS011;31943;51.410;7.564;2023-02-28T11:48:49;4.45;;;1.98;;
46222;SDS011;31943;51.410;7.564;2023-02-28T11:51:24;6.95;;;3.95;;
46222;SDS011;31943;51.410;7.564;2023-02-28T11:56:55;6.00;;;2.35;;
46222;SDS011;31943;51.410;7.564;2023-02-28T11:59:31;5.78;;;3.63;;
46222;SDS011;31943;51.410;7.564;2023-02-28T12:02:22;4.85;;;2.47;;
46222;SDS011;31943;51.410;7.564;2023-02-28T12:04:52;14.27;;;7.07;;
46222;SDS011;31943;51.410;7.564;2023-02-28T12:07:25;21.75;;;9.70;;
46222;SDS011;31943;51.410;7.564;2023-02-28T12:10:02;14.70;;;6.20;;
46222;SDS011;31943;51.410;7.564;2023-02-28T12:12:43;16.50;;;9.63;;
46222;SDS011;31943;51.410;7.564;2023-02-28T12:15:23;6.75;;;3.50;;
46222;SDS011;31943;51.410;7.564;2023-02-28T12:18:08;8.52;;;5.25;;
46222;SDS011;31943;51.410;7.564;2023-02-28T12:20:53;5.45;;;4.07;;
46222;SDS011;31943;51.410;7.564;2023-02-28T12:23:30;5.28;;;2.70;;
46222;SDS011;31943;51.410;7.564;2023-02-28T12:26:14;2.30;;;1.75;;
46222;SDS011;31943;51.410;7.564;2023-02-28T12:28:51;3.55;;;2.05;;
46222;SDS011;31943;51.410;7.564;2023-02-28T12:31:24;3.13;;;1.92;;
46222;SDS011;31943;51.410;7.564;2023-02-28T12:33:55;2.87;;;2.03;;
46222;SDS011;31943;51.410;7.564;2023-02-28T12:36:26;4.75;;;2.47;;
46222;SDS011;31943;51.410;7.564;2023-02-28T12:38:53;8.82;;;5.82;;
46222;SDS011;31943;51.410;7.564;2023-02-28T12:41:22;5.38;;;3.00;;
46222;SDS011;31943;51.410;7.564;2023-02-28T12:43:58;4.30;;;2.60;;
46222;SDS011;31943;51.410;7.564;2023-02-28T12:46:29;3.75;;;2.83;;
46222;SDS011;31943;51.410;7.564;2023-02-28T12:49:00;9.18;;;6.28;;
46222;SDS011;31943;51.410;7.564;2023-02-28T12:51:30;6.43;;;5.53;;
46222;SDS011;31943;51.410;7.564;2023-02-28T12:53:58;3.58;;;2.40;;
46222;SDS011;31943;51.410;7.564;2023-02-28T12:56:35;3.65;;;1.80;;
46222;SDS011;31943;51.410;7.564;2023-02-28T12:59:12;2.83;;;1.88;;
46222;SDS011;31943;51.410;7.564;2023-02-28T13:05:10;2.08;;;1.83;;
46222;SDS011;31943;51.410;7.564;2023-02-28T13:11:03;5.47;;;2.53;;
46222;SDS011;31943;51.410;7.564;2023-02-28T13:13:48;3.75;;;2.42;;
46222;SDS011;31943;51.410;7.564;2023-02-28T13:16:28;4.20;;;2.60;;
46222;SDS011;31943;51.410;7.564;2023-02-28T13:19:18;3.67;;;2.17;;
46222;SDS011;31943;51.410;7.564;2023-02-28T13:21:47;4.13;;;2.80;;
46222;SDS011;31943;51.410;7.564;2023-02-28T13:24:27;4.15;;;2.60;;
46222;SDS011;31943;51.410;7.564;2023-02-28T13:36:01;3.65;;;2.20;;
46222;SDS011;31943;51.410;7.564;2023-02-28T13:38:37;2.50;;;2.00;;
46222;SDS011;31943;51.410;7.564;2023-02-28T13:44:11;3.08;;;1.95;;
46222;SDS011;31943;51.410;7.564;2023-02-28T13:49:33;4.28;;;2.53;;
46222;SDS011;31943;51.410;7.564;2023-02-28T13:52:02;3.10;;;2.40;;
46222;SDS011;31943;51.410;7.564;2023-02-28T13:54:39;5.20;;;2.42;;
46222;SDS011;31943;51.410;7.564;2023-02-28T13:57:20;4.10;;;3.00;;
46222;SDS011;31943;51.410;7.564;2023-02-28T14:00:02;3.83;;;2.60;;
46222;SDS011;31943;51.410;7.564;2023-02-28T14:02:50;5.53;;;2.25;;
46222;SDS011;31943;51.410;7.564;2023-02-28T14:05:31;5.45;;;3.92;;
46222;SDS011;31943;51.410;7.564;2023-02-28T14:07:59;4.38;;;2.78;;
46222;SDS011;31943;51.410;7.564;2023-02-28T14:10:30;2.75;;;2.33;;
46222;SDS011;31943;51.410;7.564;2023-02-28T14:13:13;3.47;;;2.20;;
46222;SDS011;31943;51.410;7.564;2023-02-28T14:16:28;4.95;;;2.47;;
46222;SDS011;31943;51.410;7.564;2023-02-28T14:19:10;3.03;;;2.33;;
46222;SDS011;31943;51.410;7.564;2023-02-28T14:21:45;2.83;;;1.92;;
46222;SDS011;31943;51.410;7.564;2023-02-28T14:27:37;4.28;;;2.90;;
46222;SDS011;31943;51.410;7.564;2023-02-28T14:30:14;4.47;;;2.80;;
46222;SDS011;31943;51.410;7.564;2023-02-28T14:33:01;5.28;;;3.88;;
46222;SDS011;31943;51.410;7.564;2023-02-28T14:38:40;5.05;;;3.95;;
46222;SDS011;31943;51.410;7.564;2023-02-28T14:41:19;5.10;;;3.38;;
46222;SDS011;31943;51.410;7.564;2023-02-28T14:43:51;5.20;;;3.45;;
46222;SDS011;31943;51.410;7.564;2023-02-28T14:46:20;5.40;;;4.20;;
46222;SDS011;31943;51.410;7.564;2023-02-28T14:48:57;4.07;;;2.80;;
46222;SDS011;31943;51.410;7.564;2023-02-28T14:51:23;6.15;;;4.50;;
46222;SDS011;31943;51.410;7.564;2023-02-28T14:53:50;5.65;;;3.92;;
46222;SDS011;31943;51.410;7.564;2023-02-28T14:56:19;4.65;;;3.15;;
46222;SDS011;31943;51.410;7.564;2023-02-28T14:58:50;5.32;;;3.83;;
46222;SDS011;31943;51.410;7.564;2023-02-28T15:01:18;4.00;;;2.88;;
46222;SDS011;31943;51.410;7.564;2023-02-28T15:03:45;4.60;;;3.25;;
46222;SDS011;31943;51.410;7.564;2023-02-28T15:06:14;4.60;;;3.25;;
46222;SDS011;31943;51.410;7.564;2023-02-28T15:08:40;4.65;;;3.13;;
46222;SDS011;31943;51.410;7.564;2023-02-28T15:11:07;4.32;;;3.00;;
46222;SDS011;31943;51.410;7.564;2023-02-28T15:13:35;4.25;;;2.88;;
46222;SDS011;31943;51.410;7.564;2023-02-28T15:16:08;6.45;;;4.18;;
46222;SDS011;31943;51.410;7.564;2023-02-28T15:18:40;6.47;;;3.53;;
46222;SDS011;31943;51.410;7.564;2023-02-28T15:21:13;4.03;;;3.00;;
46222;SDS011;31943;51.410;7.564;2023-02-28T15:23:42;4.65;;;2.80;;
46222;SDS011;31943;51.410;7.564;2023-02-28T15:26:16;2.92;;;2.38;;
46222;SDS011;31943;51.410;7.564;2023-02-28T15:28:45;4.88;;;2.80;;
46222;SDS011;31943;51.410;7.564;2023-02-28T15:31:19;4.15;;;2.78;;
46222;SDS011;31943;51.410;7.564;2023-02-28T15:33:52;4.28;;;2.92;;
46222;SDS011;31943;51.410;7.564;2023-02-28T15:36:20;6.45;;;3.33;;
46222;SDS011;31943;51.410;7.564;2023-02-28T15:38:51;4.10;;;3.20;;
46222;SDS011;31943;51.410;7.564;2023-02-28T15:41:24;5.13;;;2.75;;
46222;SDS011;31943;51.410;7.564;2023-02-28T15:46:54;4.22;;;2.70;;
46222;SDS011;31943;51.410;7.564;2023-02-28T15:49:21;4.25;;;2.90;;
46222;SDS011;31943;51.410;7.564;2023-02-28T15:51:49;4.97;;;2.80;;
46222;SDS011;31943;51.410;7.564;2023-02-28T15:54:17;4.50;;;3.20;;
46222;SDS011;31943;51.410;7.564;2023-02-28T15:56:47;4.35;;;2.80;;
46222;SDS011;31943;51.410;7.564;2023-02-28T15:59:17;4.03;;;2.40;;
46222;SDS011;31943;51.410;7.564;2023-02-28T16:01:45;5.57;;;2.47;;
46222;SDS011;31943;51.410;7.564;2023-02-28T16:04:13;4.50;;;2.70;;
46222;SDS011;31943;51.410;7.564;2023-02-28T16:06:40;4.22;;;2.63;;